createdAt,value
2018-09-06T00:00:35.399Z,101523.41
2018-09-06T00:03:02.315Z,101519.44
2018-09-06T00:05:29.255Z,101522.94
2018-09-06T00:07:56.234Z,101526.39
2018-09-06T00:10:23.203Z,101525.14
2018-09-06T00:12:50.144Z,101523.16
2018-09-06T00:15:17.095Z,101515.41
2018-09-06T00:17:44.079Z,101515.95
2018-09-06T00:20:11.353Z,101515.41
2018-09-06T00:22:38.285Z,101521.39
2018-09-06T00:25:05.241Z,101523.18
2018-09-06T00:27:32.181Z,101512.28
2018-09-06T00:29:59.139Z,101511.66
2018-09-06T00:32:26.063Z,101504.14
2018-09-06T00:34:52.979Z,101501.02
2018-09-06T00:37:19.901Z,101500.30
2018-09-06T00:39:46.830Z,101498.01
2018-09-06T00:42:13.768Z,101504.19
2018-09-06T00:44:40.762Z,101506.71
2018-09-06T00:47:07.713Z,101502.72
2018-09-06T00:49:34.670Z,101498.73
2018-09-06T00:52:01.600Z,101496.75
2018-09-06T00:54:28.570Z,101498.11
2018-09-06T00:56:55.513Z,101496.98
2018-09-06T00:59:24.736Z,101490.72
2018-09-06T01:01:51.993Z,101493.54
2018-09-06T01:04:18.901Z,101491.87
2018-09-06T01:06:45.861Z,101491.78
2018-09-06T01:09:12.793Z,101490.41
2018-09-06T01:11:39.708Z,101492.28
2018-09-06T01:14:06.660Z,101489.98
2018-09-06T01:16:33.650Z,101487.58
2018-09-06T01:19:00.574Z,101487.09
2018-09-06T01:21:27.523Z,101486.05
2018-09-06T01:23:54.473Z,101476.95
2018-09-06T01:26:28.247Z,101475.50
2018-09-06T01:28:55.170Z,101476.96
2018-09-06T01:31:22.322Z,101478.01
2018-09-06T01:33:49.352Z,101475.60
2018-09-06T01:36:22.159Z,101466.70
2018-09-06T01:38:49.054Z,101466.08
2018-09-06T01:41:15.998Z,101470.89
2018-09-06T01:43:42.920Z,101462.10
2018-09-06T01:46:16.526Z,101464.50
2018-09-06T01:48:43.888Z,101466.95
2018-09-06T01:51:10.813Z,101460.73
2018-09-06T01:53:37.710Z,101461.19
2018-09-06T01:56:04.694Z,101455.75
2018-09-06T01:58:31.644Z,101452.50
2018-09-06T02:00:58.589Z,101450.64
2018-09-06T02:03:25.532Z,101452.58
2018-09-06T02:05:52.445Z,101448.73
2018-09-06T02:08:19.364Z,101446.42
2018-09-06T02:10:46.298Z,101447.06
2018-09-06T02:13:13.184Z,101439.53
2018-09-06T02:15:40.090Z,101434.32
2018-09-06T02:18:07.012Z,101444.97
2018-09-06T02:20:34.179Z,101440.08
2018-09-06T02:23:01.107Z,101442.35
2018-09-06T02:25:28.036Z,101437.95
2018-09-06T02:27:54.951Z,101437.04
2018-09-06T02:30:21.837Z,101439.31
2018-09-06T02:32:48.753Z,101430.84
2018-09-06T02:35:15.658Z,101430.34
2018-09-06T02:37:42.566Z,101432.52
2018-09-06T02:40:14.055Z,101424.50
2018-09-06T02:42:41.025Z,101428.26
2018-09-06T02:45:07.913Z,101415.80
2018-09-06T02:50:26.133Z,101418.94
2018-09-06T02:52:53.773Z,101418.53
2018-09-06T02:55:21.702Z,101414.58
2018-09-06T02:57:49.006Z,101410.78
2018-09-06T03:00:19.534Z,101413.63
2018-09-06T03:02:46.441Z,101406.11
2018-09-06T03:05:13.354Z,101406.30
2018-09-06T03:07:40.277Z,101405.98
2018-09-06T03:10:07.189Z,101405.89
2018-09-06T03:12:34.101Z,101404.22
2018-09-06T03:15:01.021Z,101404.94
2018-09-06T03:17:27.928Z,101397.42
2018-09-06T03:19:54.819Z,101398.69
2018-09-06T03:22:21.740Z,101396.91
2018-09-06T03:24:48.658Z,101399.19
2018-09-06T03:27:15.587Z,101392.94
2018-09-06T03:29:42.508Z,101397.11
2018-09-06T03:32:09.417Z,101384.88
2018-09-06T03:34:36.340Z,101376.31
2018-09-06T03:37:03.234Z,101380.17
2018-09-06T03:39:30.134Z,101371.42
2018-09-06T03:41:57.028Z,101381.44
2018-09-06T03:44:23.925Z,101381.84
2018-09-06T03:46:50.829Z,101380.30
2018-09-06T03:49:17.737Z,101381.12
2018-09-06T03:51:44.650Z,101381.12
2018-09-06T03:54:11.540Z,101381.53
2018-09-06T03:56:38.428Z,101374.86
2018-09-06T03:59:05.396Z,101371.92
2018-09-06T04:01:32.300Z,101368.58
2018-09-06T04:03:59.210Z,101374.23
2018-09-06T04:06:26.084Z,101375.27
2018-09-06T04:08:52.977Z,101371.52
2018-09-06T04:11:19.843Z,101361.78
2018-09-06T04:13:46.723Z,101363.77
2018-09-06T04:16:13.663Z,101359.15
2018-09-06T04:18:40.528Z,101356.75
2018-09-06T04:21:07.455Z,101358.23
2018-09-06T04:23:34.368Z,101352.98
2018-09-06T04:26:01.281Z,101347.24
2018-09-06T04:28:28.209Z,101362.63
2018-09-06T04:30:55.133Z,101351.32
2018-09-06T04:33:22.008Z,101356.02
2018-09-06T04:35:48.941Z,101354.98
2018-09-06T04:38:15.835Z,101351.13
2018-09-06T04:40:42.713Z,101351.22
2018-09-06T04:43:09.744Z,101356.66
2018-09-06T04:45:36.630Z,101349.86
2018-09-06T04:48:03.516Z,101356.34
2018-09-06T04:50:30.413Z,101359.37
2018-09-06T04:52:57.285Z,101359.37
2018-09-06T04:55:24.253Z,101359.05
2018-09-06T04:57:51.053Z,101359.47
2018-09-06T05:00:17.952Z,101363.45
2018-09-06T05:02:44.836Z,101354.03
2018-09-06T05:05:11.735Z,101359.37
2018-09-06T05:07:38.631Z,101360.73
2018-09-06T05:10:06.072Z,101361.45
2018-09-06T05:12:32.954Z,101360.31
2018-09-06T05:14:59.852Z,101360.22
2018-09-06T05:17:26.725Z,101350.39
2018-09-06T05:19:53.620Z,101360.40
2018-09-06T05:22:20.508Z,101361.77
2018-09-06T05:24:47.465Z,101350.66
2018-09-06T05:27:14.344Z,101357.98
2018-09-06T05:29:41.224Z,101356.72
2018-09-06T05:32:08.132Z,101364.14
2018-09-06T05:34:35.033Z,101355.25
2018-09-06T05:37:01.912Z,101356.20
2018-09-06T05:39:28.859Z,101345.18
2018-09-06T05:41:55.741Z,101344.59
2018-09-06T05:44:22.805Z,101345.16
2018-09-06T05:46:49.786Z,101345.31
2018-09-06T05:49:16.671Z,101340.59
2018-09-06T05:51:43.545Z,101341.30
2018-09-06T05:54:10.435Z,101338.78
2018-09-06T05:56:37.337Z,101337.51
2018-09-06T05:59:04.244Z,101334.76
2018-09-06T06:01:31.409Z,101330.96
2018-09-06T06:03:58.301Z,101323.81
2018-09-06T06:06:25.188Z,101320.02
2018-09-06T06:08:52.108Z,101315.35
2018-09-06T06:11:19.761Z,101315.55
2018-09-06T06:13:46.653Z,101314.34
2018-09-06T06:16:13.929Z,101314.77
2018-09-06T06:18:40.824Z,101313.00
2018-09-06T06:21:07.728Z,101312.23
2018-09-06T06:23:34.624Z,101306.53
2018-09-06T06:26:01.613Z,101308.16
2018-09-06T06:28:28.476Z,101307.64
2018-09-06T06:30:55.389Z,101299.95
2018-09-06T06:33:22.284Z,101305.83
2018-09-06T06:35:49.216Z,101296.70
2018-09-06T06:38:16.124Z,101293.55
2018-09-06T06:40:43.021Z,101292.94
2018-09-06T06:43:09.914Z,101296.13
2018-09-06T06:45:36.816Z,101294.09
2018-09-06T06:48:03.744Z,101289.85
2018-09-06T06:50:30.707Z,101288.09
2018-09-06T06:52:57.568Z,101291.73
2018-09-06T06:55:24.485Z,101284.30
2018-09-06T06:57:51.373Z,101283.33
2018-09-06T07:00:19.992Z,101282.09
2018-09-06T07:02:46.891Z,101281.64
2018-09-06T07:05:13.789Z,101284.29
2018-09-06T07:07:40.677Z,101277.52
2018-09-06T07:10:07.600Z,101278.22
2018-09-06T07:12:34.488Z,101277.63
2018-09-06T07:15:01.442Z,101281.75
2018-09-06T07:17:28.336Z,101281.37
2018-09-06T07:19:55.213Z,101287.04
2018-09-06T07:22:22.136Z,101288.59
2018-09-06T07:24:49.045Z,101285.92
2018-09-06T07:27:15.985Z,101281.46
2018-09-06T07:29:42.880Z,101288.18
2018-09-06T07:32:09.809Z,101287.83
2018-09-06T07:34:36.716Z,101283.59
2018-09-06T07:37:03.632Z,101283.78
2018-09-06T07:39:30.542Z,101280.86
2018-09-06T07:41:57.432Z,101286.93
2018-09-06T07:44:24.311Z,101289.85
2018-09-06T07:46:51.284Z,101290.81
2018-09-06T07:49:18.116Z,101296.44
2018-09-06T07:51:45.143Z,101299.30
2018-09-06T07:54:11.925Z,101301.31
2018-09-06T07:56:38.831Z,101298.27
2018-09-06T07:59:05.733Z,101298.34
2018-09-06T08:01:32.692Z,101297.77
2018-09-06T08:03:59.586Z,101297.78
2018-09-06T08:06:26.525Z,101294.15
2018-09-06T08:08:53.429Z,101300.27
2018-09-06T08:11:20.349Z,101301.13
2018-09-06T08:13:47.300Z,101293.46
2018-09-06T08:16:14.229Z,101287.56
2018-09-06T08:18:41.144Z,101289.38
2018-09-06T08:21:08.066Z,101286.47
2018-09-06T08:23:34.965Z,101291.98
2018-09-06T08:26:01.877Z,101288.64
2018-09-06T08:28:28.767Z,101292.55
2018-09-06T08:30:55.924Z,101293.09
2018-09-06T08:33:22.641Z,101287.27
2018-09-06T08:35:49.548Z,101288.95
2018-09-06T08:38:16.460Z,101285.63
2018-09-06T08:40:43.356Z,101285.86
2018-09-06T08:43:10.277Z,101284.06
2018-09-06T08:45:37.153Z,101290.07
2018-09-06T08:48:04.064Z,101287.77
2018-09-06T08:50:30.944Z,101283.03
2018-09-06T08:52:57.872Z,101291.60
2018-09-06T08:55:24.780Z,101287.97
2018-09-06T08:57:51.665Z,101292.48
2018-09-06T09:00:18.542Z,101283.47
2018-09-06T09:02:45.598Z,101281.98
2018-09-06T09:05:12.372Z,101281.11
2018-09-06T09:07:39.395Z,101285.69
2018-09-06T09:10:06.204Z,101278.88
2018-09-06T09:12:33.192Z,101274.78
2018-09-06T09:15:00.084Z,101276.70
2018-09-06T09:17:26.996Z,101265.41
2018-09-06T09:19:53.902Z,101267.00
2018-09-06T09:22:20.853Z,101253.73
2018-09-06T09:24:47.723Z,101249.21
2018-09-06T09:27:14.665Z,101247.15
2018-09-06T09:29:41.551Z,101242.55
2018-09-06T09:32:08.484Z,101244.18
2018-09-06T09:34:35.376Z,101238.72
2018-09-06T09:37:02.300Z,101237.98
2018-09-06T09:39:29.227Z,101235.75
2018-09-06T09:41:56.156Z,101231.47
2018-09-06T09:44:23.048Z,101227.04
2018-09-06T09:49:16.421Z,101212.39
2018-09-06T09:51:43.406Z,101212.42
2018-09-06T09:54:10.321Z,101212.22
2018-09-06T09:56:37.272Z,101206.56
2018-09-06T09:59:04.212Z,101197.73
2018-09-06T10:01:36.936Z,101205.91
2018-09-06T10:04:09.604Z,101200.31
2018-09-06T10:06:42.325Z,101208.45
2018-09-06T10:09:15.116Z,101199.19
2018-09-06T10:11:42.004Z,101198.70
2018-09-06T10:14:08.912Z,101201.20
2018-09-06T10:16:35.827Z,101190.48
2018-09-06T10:19:02.758Z,101193.91
2018-09-06T10:21:29.677Z,101185.67
2018-09-06T10:23:56.632Z,101189.25
2018-09-06T10:26:23.530Z,101177.66
2018-09-06T10:28:50.436Z,101173.83
2018-09-06T10:31:17.327Z,101182.36
2018-09-06T10:33:44.241Z,101175.48
2018-09-06T10:36:11.172Z,101174.33
2018-09-06T10:38:38.080Z,101171.59
2018-09-06T10:41:05.309Z,101169.95
2018-09-06T10:43:32.251Z,101164.18
2018-09-06T10:45:59.182Z,101156.21
2018-09-06T10:48:26.097Z,101155.37
2018-09-06T10:50:53.021Z,101145.45
2018-09-06T10:53:19.936Z,101152.33
2018-09-06T10:55:46.843Z,101147.94
2018-09-06T10:58:13.756Z,101136.09
2018-09-06T11:00:40.722Z,101127.57
2018-09-06T11:03:07.647Z,101121.75
2018-09-06T11:05:34.570Z,101127.01
2018-09-06T11:08:01.559Z,101125.35
2018-09-06T11:10:28.431Z,101121.77
2018-09-06T11:12:55.312Z,101112.61
2018-09-06T11:15:22.219Z,101112.28
2018-09-06T11:17:49.128Z,101113.08
2018-09-06T11:20:16.027Z,101108.05
2018-09-06T11:22:43.162Z,101115.65
2018-09-06T11:25:09.849Z,101106.25
2018-09-06T11:27:36.825Z,101100.44
2018-09-06T11:30:03.957Z,101094.97
2018-09-06T11:32:30.912Z,101093.36
2018-09-06T11:34:57.825Z,101089.51
2018-09-06T11:37:24.724Z,101081.47
2018-09-06T11:39:51.674Z,101087.18
2018-09-06T11:42:18.573Z,101086.16
2018-09-06T11:44:45.476Z,101083.42
2018-09-06T11:47:12.417Z,101084.89
2018-09-06T11:49:39.329Z,101085.72
2018-09-06T11:52:06.772Z,101076.48
2018-09-06T11:54:33.681Z,101071.21
2018-09-06T11:57:00.586Z,101068.48
2018-09-06T11:59:27.513Z,101067.03
2018-09-06T12:01:54.415Z,101058.00
2018-09-06T12:04:21.366Z,101053.05
2018-09-06T12:06:48.283Z,101046.89
2018-09-06T12:09:15.204Z,101052.99
2018-09-06T12:11:42.093Z,101043.20
2018-09-06T12:14:09.011Z,101045.44
2018-09-06T12:16:35.925Z,101046.80
2018-09-06T12:19:02.852Z,101043.47
2018-09-06T12:21:29.769Z,101039.38
2018-09-06T12:23:56.767Z,101043.65
2018-09-06T12:26:23.754Z,101037.11
2018-09-06T12:28:50.674Z,101039.51
2018-09-06T12:31:17.599Z,101038.97
2018-09-06T12:33:44.536Z,101032.60
2018-09-06T12:36:11.484Z,101029.93
2018-09-06T12:38:38.475Z,101030.28
2018-09-06T12:41:05.389Z,100978.88
2018-09-06T12:43:32.329Z,101028.45
2018-09-06T12:45:59.260Z,101028.91
2018-09-06T12:48:26.161Z,101020.65
2018-09-06T12:50:53.099Z,101019.36
2018-09-06T12:53:20.028Z,101013.60
2018-09-06T12:55:47.004Z,101014.75
2018-09-06T12:58:14.057Z,101016.90
2018-09-06T13:00:40.996Z,101012.63
2018-09-06T13:03:07.889Z,101013.06
2018-09-06T13:05:34.796Z,101002.52
2018-09-06T13:08:01.799Z,101003.80
2018-09-06T13:10:28.653Z,101004.77
2018-09-06T13:12:55.540Z,101001.81
2018-09-06T13:15:22.456Z,100990.91
2018-09-06T13:17:49.354Z,100996.16
2018-09-06T13:20:16.244Z,100996.98
2018-09-06T13:22:43.153Z,100994.06
2018-09-06T13:27:43.711Z,100979.48
2018-09-06T13:30:10.637Z,100985.65
2018-09-06T13:32:37.535Z,100984.86
2018-09-06T13:35:04.433Z,100980.63
2018-09-06T13:37:31.345Z,100983.59
2018-09-06T13:39:58.240Z,100973.29
2018-09-06T13:42:25.139Z,100968.05
2018-09-06T13:44:52.055Z,100972.17
2018-09-06T13:47:18.968Z,100973.35
2018-09-06T13:49:45.868Z,100964.38
2018-09-06T13:52:12.832Z,100964.69
2018-09-06T13:54:39.672Z,100955.33
2018-09-06T13:57:06.613Z,100950.65
2018-09-06T13:59:33.528Z,100951.13
2018-09-06T14:02:00.501Z,100944.95
2018-09-06T14:04:27.474Z,100939.36
2018-09-06T14:06:54.357Z,100934.20
2018-09-06T14:09:21.256Z,100930.85
2018-09-06T14:11:48.229Z,100930.19
2018-09-06T14:14:15.130Z,100928.44
2018-09-06T14:16:42.094Z,100925.97
2018-09-06T14:19:08.960Z,100921.30
2018-09-06T14:21:35.874Z,100924.30
2018-09-06T14:24:02.919Z,100917.55
2018-09-06T14:26:29.813Z,100911.70
2018-09-06T14:28:57.070Z,100909.20
2018-09-06T14:31:23.989Z,100899.61
2018-09-06T14:33:50.985Z,100901.05
2018-09-06T14:36:17.905Z,100903.03
2018-09-06T14:38:44.846Z,100896.73
2018-09-06T14:41:11.737Z,100892.61
2018-09-06T14:43:38.652Z,100891.27
2018-09-06T14:46:05.567Z,100893.51
2018-09-06T14:48:32.463Z,100886.01
2018-09-06T14:50:59.497Z,100881.06
2018-09-06T14:53:26.389Z,100885.05
2018-09-06T14:55:53.295Z,100876.11
2018-09-06T14:58:20.215Z,100872.75
2018-09-06T15:00:47.129Z,100877.13
2018-09-06T15:03:14.017Z,100870.97
2018-09-06T15:05:40.906Z,100874.42
2018-09-06T15:08:07.880Z,100864.42
2018-09-06T15:10:34.724Z,100869.20
2018-09-06T15:13:01.631Z,100866.44
2018-09-06T15:15:28.528Z,100862.36
2018-09-06T15:17:55.432Z,100868.13
2018-09-06T15:20:22.341Z,100863.16
2018-09-06T15:22:49.285Z,100855.80
2018-09-06T15:25:16.183Z,100854.14
2018-09-06T15:27:43.137Z,100849.45
2018-09-06T15:30:10.022Z,100851.34
2018-09-06T15:32:36.913Z,100848.86
2018-09-06T15:35:03.848Z,100839.23
2018-09-06T15:37:30.744Z,100840.00
2018-09-06T15:39:57.640Z,100834.24
2018-09-06T15:42:24.546Z,100833.41
2018-09-06T15:44:51.464Z,100835.30
2018-09-06T15:47:18.353Z,100834.95
2018-09-06T15:49:45.296Z,100828.16
2018-09-06T15:52:12.165Z,100831.28
2018-09-06T15:54:39.070Z,100831.58
2018-09-06T15:57:05.978Z,100823.33
2018-09-06T15:59:32.865Z,100825.59
2018-09-06T16:01:59.773Z,100827.77
2018-09-06T16:04:26.656Z,100819.02
2018-09-06T16:06:53.563Z,100820.42
2018-09-06T16:09:20.456Z,100823.78
2018-09-06T16:11:47.377Z,100822.41
2018-09-06T16:14:14.273Z,100821.03
2018-09-06T16:16:41.169Z,100814.45
2018-09-06T16:19:08.240Z,100816.95
2018-09-06T16:21:35.133Z,100812.86
2018-09-06T16:24:02.072Z,100813.69
2018-09-06T16:26:28.956Z,100813.45
2018-09-06T16:28:55.864Z,100812.90
2018-09-06T16:31:22.771Z,100809.31
2018-09-06T16:33:49.690Z,100815.91
2018-09-06T16:36:16.593Z,100810.70
2018-09-06T16:38:43.477Z,100812.90
2018-09-06T16:41:10.388Z,100809.89
2018-09-06T16:43:37.289Z,100803.58
2018-09-06T16:46:04.193Z,100803.04
2018-09-06T16:48:31.092Z,100799.73
2018-09-06T16:50:57.976Z,100796.99
2018-09-06T16:53:24.876Z,100797.82
2018-09-06T16:55:51.768Z,100792.59
2018-09-06T16:58:18.664Z,100790.67
2018-09-06T17:00:45.637Z,100792.59
2018-09-06T17:03:12.484Z,100791.50
2018-09-06T17:05:39.361Z,100786.28
2018-09-06T17:08:06.286Z,100783.27
2018-09-06T17:10:33.185Z,100779.42
2018-09-06T17:13:00.121Z,100781.05
2018-09-06T17:15:27.033Z,100778.58
2018-09-06T17:17:53.925Z,100778.55
2018-09-06T17:20:20.847Z,100788.16
2018-09-06T17:22:47.760Z,100784.59
2018-09-06T17:25:14.657Z,100786.76
2018-09-06T17:27:41.572Z,100781.25
2018-09-06T17:30:09.261Z,100778.23
2018-09-06T17:32:36.201Z,100782.05
2018-09-06T17:35:03.185Z,100778.74
2018-09-06T17:37:30.089Z,100773.50
2018-09-06T17:39:57.035Z,100775.69
2018-09-06T17:42:23.974Z,100765.99
2018-09-06T17:44:50.890Z,100773.66
2018-09-06T17:47:17.810Z,100768.14
2018-09-06T17:49:44.700Z,100764.58
2018-09-06T17:52:11.858Z,100770.31
2018-09-06T17:54:38.744Z,100776.33
2018-09-06T17:57:05.687Z,100776.28
2018-09-06T17:59:32.588Z,100771.27
2018-09-06T18:01:59.509Z,100780.30
2018-09-06T18:04:26.405Z,100776.95
2018-09-06T18:06:53.308Z,100781.05
2018-09-06T18:09:20.273Z,100777.18
2018-09-06T18:11:47.227Z,100776.36
2018-09-06T18:14:14.152Z,100778.20
2018-09-06T18:16:41.056Z,100771.55
2018-09-06T18:19:07.972Z,100772.09
2018-09-06T18:21:34.888Z,100770.45
2018-09-06T18:24:01.815Z,100762.74
2018-09-06T18:26:28.748Z,100767.36
2018-09-06T18:28:55.711Z,100770.05
2018-09-06T18:31:22.680Z,100766.73
2018-09-06T18:33:49.604Z,100775.72
2018-09-06T18:36:16.528Z,100773.48
2018-09-06T18:38:44.143Z,100773.73
2018-09-06T18:41:11.056Z,100778.38
2018-09-06T18:43:37.975Z,100777.53
2018-09-06T18:46:04.865Z,100771.27
2018-09-06T18:48:31.767Z,100767.14
2018-09-06T18:50:58.661Z,100777.81
2018-09-06T18:53:25.565Z,100771.48
2018-09-06T18:55:52.480Z,100772.33
2018-09-06T18:58:19.377Z,100773.14
2018-09-06T19:00:46.277Z,100774.86
2018-09-06T19:03:13.217Z,100769.95
2018-09-06T19:05:40.225Z,100774.64
2018-09-06T19:08:07.136Z,100773.55
2018-09-06T19:10:34.028Z,100771.38
2018-09-06T19:13:00.908Z,100762.33
2018-09-06T19:15:27.804Z,100763.19
2018-09-06T19:17:54.743Z,100773.34
2018-09-06T19:20:21.741Z,100771.69
2018-09-06T19:22:48.651Z,100769.80
2018-09-06T19:25:15.563Z,100774.21
2018-09-06T19:27:42.472Z,100770.95
2018-09-06T19:30:09.432Z,100764.05
2018-09-06T19:32:36.334Z,100771.17
2018-09-06T19:35:03.268Z,100763.75
2018-09-06T19:37:30.152Z,100767.58
2018-09-06T19:39:57.116Z,100773.06
2018-09-06T19:42:23.991Z,100782.64
2018-09-06T19:44:50.885Z,100778.18
2018-09-06T19:47:17.784Z,100779.99
2018-09-06T19:49:44.688Z,100776.06
2018-09-06T19:52:11.585Z,100779.54
2018-09-06T19:54:38.483Z,100777.56
2018-09-06T19:57:05.473Z,100775.34
2018-09-06T19:59:32.375Z,100767.10
2018-09-06T20:01:59.308Z,100767.09
2018-09-06T20:04:26.245Z,100766.72
2018-09-06T20:06:53.264Z,100768.86
2018-09-06T20:09:20.248Z,100767.66
2018-09-06T20:11:47.322Z,100764.05
2018-09-06T20:14:14.222Z,100759.08
2018-09-06T20:16:41.254Z,100765.05
2018-09-06T20:19:08.107Z,100757.85
2018-09-06T20:21:35.000Z,100755.94
2018-09-06T20:24:01.930Z,100768.73
2018-09-06T20:26:28.838Z,100756.66
2018-09-06T20:28:55.942Z,100754.98
2018-09-06T20:31:22.825Z,100751.33
2018-09-06T20:33:49.763Z,100755.09
2018-09-06T20:36:16.608Z,100755.33
2018-09-06T20:38:43.516Z,100753.59
2018-09-06T20:41:10.432Z,100753.55
2018-09-06T20:43:37.377Z,100755.13
2018-09-06T20:46:04.268Z,100754.02
2018-09-06T20:48:31.160Z,100745.47
2018-09-06T20:50:58.104Z,100752.59
2018-09-06T20:53:25.046Z,100750.44
2018-09-06T20:55:52.357Z,100751.52
2018-09-06T20:58:19.537Z,100754.02
2018-09-06T21:00:46.449Z,100752.86
2018-09-06T21:03:13.501Z,100750.13
2018-09-06T21:05:41.396Z,100611.94
2018-09-06T21:08:08.887Z,100747.12
2018-09-06T21:10:35.847Z,100747.70
2018-09-06T21:13:02.709Z,100741.72
2018-09-06T21:15:29.714Z,100744.48
2018-09-06T21:17:56.596Z,100748.38
2018-09-06T21:20:24.300Z,100739.88
2018-09-06T21:22:51.216Z,100740.71
2018-09-06T21:25:18.113Z,100751.94
2018-09-06T21:27:45.025Z,100749.77
2018-09-06T21:30:11.955Z,100757.09
2018-09-06T21:32:38.873Z,100763.95
2018-09-06T21:35:05.786Z,100759.83
2018-09-06T21:37:33.513Z,100757.86
2018-09-06T21:40:00.480Z,100756.94
2018-09-06T21:42:27.329Z,100752.20
2018-09-06T21:44:54.222Z,100752.75
2018-09-06T21:47:21.116Z,100750.48
2018-09-06T21:49:48.005Z,100753.19
2018-09-06T21:52:14.900Z,100752.03
2018-09-06T21:54:41.789Z,100748.89
2018-09-06T21:57:08.681Z,100751.56
2018-09-06T21:59:35.577Z,100750.95
2018-09-06T22:02:02.496Z,100745.05
2018-09-06T22:04:29.388Z,100748.84
2018-09-06T22:06:56.339Z,100749.31
2018-09-06T22:09:23.248Z,100751.14
2018-09-06T22:11:50.180Z,100747.46
2018-09-06T22:14:17.108Z,100754.88
2018-09-06T22:16:44.051Z,100746.39
2018-09-06T22:19:10.963Z,100748.27
2018-09-06T22:21:37.972Z,100751.30
2018-09-06T22:24:04.914Z,100755.10
2018-09-06T22:26:31.849Z,100750.71
2018-09-06T22:28:58.800Z,100759.69
2018-09-06T22:31:25.760Z,100752.40
2018-09-06T22:33:52.681Z,100758.11
2018-09-06T22:36:19.600Z,100762.91
2018-09-06T22:38:46.536Z,100764.16
2018-09-06T22:41:13.440Z,100759.80
2018-09-06T22:43:40.374Z,100761.31
2018-09-06T22:46:07.316Z,100761.31
2018-09-06T22:48:34.266Z,100761.84
2018-09-06T22:51:01.879Z,100757.56
2018-09-06T22:53:28.916Z,100761.98
2018-09-06T22:55:55.859Z,100754.38
2018-09-06T22:58:22.781Z,100750.88
2018-09-06T23:00:49.696Z,100755.45
2018-09-06T23:03:22.389Z,100757.11
2018-09-06T23:05:49.296Z,100753.61
2018-09-06T23:08:16.225Z,100750.91
2018-09-06T23:10:43.119Z,100747.59
2018-09-06T23:13:10.045Z,100742.39
2018-09-06T23:15:36.966Z,100737.45
2018-09-06T23:18:03.913Z,100736.60
2018-09-06T23:20:30.809Z,100732.11
2018-09-06T23:22:57.726Z,100730.70
2018-09-06T23:25:24.624Z,100726.95
2018-09-06T23:27:51.547Z,100726.39
2018-09-06T23:30:18.444Z,100723.66
2018-09-06T23:32:45.341Z,100718.17
2018-09-06T23:35:12.215Z,100716.77
2018-09-06T23:37:39.105Z,100719.98
2018-09-06T23:40:06.011Z,100718.98
2018-09-06T23:42:32.897Z,100715.97
2018-09-06T23:44:59.814Z,100713.38
2018-09-06T23:47:26.725Z,100717.37
2018-09-06T23:49:53.613Z,100720.64
2018-09-06T23:52:20.972Z,100713.57
2018-09-06T23:54:48.244Z,100716.34
2018-09-06T23:57:15.120Z,100709.81
2018-09-06T23:59:42.029Z,100709.22
